Latest Weather Observations for Norfolk Island

IDN60801

Issued at 4:32 pm EDT Sunday 7 February 2016 (issued every 30 minutes, with the page automatically refreshed every 10 minutes)

About weather observations | Map of weather stations | Latest weather observations for NSW | Other Formats
Station Details ID: 200288 Name: NORFOLK ISLAND AERO Lat: -29.04 Lon: 167.94 Height: 111.73 m
Data from the previous 72 hours. | See also: Recent months at Norfolk Island
Date/Time
EDT
Temp
°C
App
Temp
°C
Dew
Point
Rel
Hum
%
Delta-T
°C
Wind Press
QNH
hPa
Press
MSL
hPa
Rain
since 9 am
mm
Dir
 
Spd
km/h
Gust
km/h
Spd
kts
Gust
kts
07/04:30pm 23.9 23.8 19.9 78 2.6 SW 20 28 11 15 1005.6 - 0.0
07/04:00pm 24.2 22.2 19.2 73 3.2 SW 28 37 15 20 1005.7 - 0.0
07/03:30pm 24.8 23.8 20.4 76 2.9 SW 26 37 14 20 1005.9 - 0.0
07/03:00pm 24.4 24.3 19.9 76 2.9 SW 20 30 11 16 1005.9 1005.4 0.0
07/02:30pm 25.3 23.9 20.4 74 3.2 SW 28 35 15 19 1005.9 - 0.0
07/02:00pm 24.8 23.3 20.2 75 3.0 SW 28 33 15 18 1006.1 - 0.0
07/01:30pm 25.3 24.3 20.4 74 3.2 SW 26 35 14 19 1006.2 - 0.0
07/01:00pm 25.1 24.1 20.4 75 3.1 SW 26 33 14 18 1006.4 - 0.0
07/12:30pm 24.8 23.8 19.7 73 3.3 WSW 24 33 13 18 1006.8 - 0.0
07/12:00pm 25.0 24.5 19.9 73 3.3 WSW 22 32 12 17 1007.0 1006.5 0.0
07/11:30am 25.3 24.6 20.3 74 3.3 SW 24 33 13 18 1007.2 - 0.0
07/11:00am 24.9 24.4 20.0 74 3.2 WSW 22 30 12 16 1007.2 - 0.0
07/10:30am 24.9 24.2 20.2 75 3.1 WSW 24 32 13 17 1007.3 - 0.0
07/10:00am 25.4 25.1 20.4 74 3.3 SW 22 30 12 16 1007.5 - 0.0
07/09:30am 25.0 24.9 19.9 73 3.3 WSW 20 30 11 16 1007.5 - 0.0
07/09:00am 24.6 24.5 19.5 73 3.3 WSW 19 28 10 15 1007.4 1006.9 2.2
07/08:30am 24.0 24.3 19.5 76 2.9 SW 17 26 9 14 1007.2 - 2.2
07/08:00am 23.9 23.9 20.1 79 2.5 SW 20 28 11 15 1007.3 - 2.2
07/07:30am 23.5 23.9 19.8 80 2.4 SW 17 24 9 13 1007.1 - 2.2
07/07:00am 22.9 23.4 20.0 84 1.9 SW 17 26 9 14 1006.8 - 2.2
07/06:30am 22.8 23.0 19.4 81 2.2 SW 17 24 9 13 1006.4 - 2.2
07/06:00am 22.5 22.8 19.7 84 1.8 SW 17 20 9 11 1005.9 1005.4 2.2
07/05:43am 22.4 23.1 19.6 84 1.8 SW 15 20 8 11 1005.6 - 2.2
07/05:30am 22.3 22.6 19.5 84 1.8 SSW 17 24 9 13 1005.4 - 2.2
07/05:18am 22.5 22.3 19.7 84 1.8 SSW 20 28 11 15 1005.3 - 2.2
07/05:15am 22.5 22.4 19.9 85 1.7 SSW 20 28 11 15 1005.3 - 2.2
07/05:00am 22.4 22.4 19.8 85 1.7 SSW 19 28 10 15 1005.2 - 2.2
07/04:30am 22.4 22.6 20.1 87 1.5 SSW 19 28 10 15 1004.8 - 2.2
07/04:09am 22.4 22.7 20.4 88 1.3 SSW 19 28 10 15 1004.6 - 2.2
07/04:07am 22.4 22.4 20.2 87 1.4 SSW 20 28 11 15 1004.6 - 2.2
07/04:00am 22.3 21.5 20.1 87 1.4 SSW 24 33 13 18 1004.5 - 2.2
07/03:33am 22.6 23.5 20.0 85 1.7 SSW 15 26 8 14 1004.3 - 2.2
07/03:30am 22.6 23.1 20.0 85 1.7 SSW 17 26 9 14 1004.2 - 2.2
07/03:00am 22.5 23.0 20.0 86 1.6 SSW 17 28 9 15 1004.1 1003.7 2.2
07/02:30am 22.4 22.8 19.8 85 1.7 SSW 17 24 9 13 1004.1 - 2.2
07/02:16am 22.5 22.5 19.7 84 1.8 SSW 19 28 10 15 1004.2 - 2.2
07/02:00am 22.5 22.7 20.5 88 1.3 SSW 20 30 11 16 1004.2 - 2.2
07/01:50am 22.4 22.8 20.6 89 1.2 SSW 19 28 10 15 1004.2 - 2.2
07/01:47am 22.4 22.6 20.6 89 1.2 SSW 20 28 11 15 1004.2 - 2.2
07/01:30am 22.5 22.7 20.5 88 1.3 SSW 20 30 11 16 1004.4 - 2.2
07/01:06am 22.6 23.5 20.8 89 1.2 SW 17 24 9 13 1004.5 - 2.2
07/01:00am 22.6 23.1 20.9 90 1.1 SSW 19 28 10 15 1004.6 - 2.2
07/12:32am 22.7 23.7 21.0 90 1.1 SW 17 26 9 14 1004.6 - 2.2
07/12:30am 22.6 23.6 21.1 91 1.0 SW 17 20 9 11 1004.6 - 2.2
07/12:09am 22.3 23.3 21.1 93 0.8 SW 17 26 9 14 1004.8 - 2.2
07/12:00am 22.3 23.3 21.1 93 0.8 WSW 17 26 9 14 1004.8 1004.4 2.2
 
Date/Time
EDT
Temp
°C
App
Temp
°C
Dew
Point
Rel
Hum
%
Delta-T
°C
Wind Press
QNH
hPa
Press
MSL
hPa
Rain
since 9 am
mm
Dir
 
Spd
km/h
Gust
km/h
Spd
kts
Gust
kts
06/11:41pm 21.9 23.9 20.8 93 0.7 WSW 11 15 6 8 1005.0 - 2.0
06/11:36pm 21.8 23.3 20.6 93 0.8 SW 13 19 7 10 1005.0 - 2.0
06/11:30pm 21.8 23.0 20.6 93 0.8 SW 15 22 8 12 1005.0 - 2.0
06/11:17pm 22.0 22.9 20.8 93 0.8 WSW 17 32 9 17 1005.2 - 2.0
06/11:14pm 22.7 24.0 21.6 93 0.7 WSW 17 20 9 11 1005.2 - 1.4
06/11:00pm 22.6 23.5 21.5 93 0.7 WSW 19 30 10 16 1005.3 - 1.4
06/10:57pm 22.6 23.3 21.5 93 0.7 WSW 20 30 11 16 1005.3 - 1.4
06/10:30pm 22.5 23.1 21.3 93 0.8 SW 20 28 11 15 1005.3 - 1.4
06/10:26pm 22.5 23.0 21.1 92 0.9 SW 20 28 11 15 1005.3 - 1.4
06/10:00pm 22.8 23.7 21.6 93 0.8 WSW 19 28 10 15 1005.0 - 1.4
06/09:51pm 22.6 23.0 21.7 95 0.6 WSW 22 30 12 16 1005.0 - 1.4
06/09:40pm 22.6 22.6 21.7 95 0.6 W 24 33 13 18 1004.9 - 1.4
06/09:30pm 22.6 23.4 21.7 95 0.6 W 20 26 11 14 1004.9 - 1.4
06/09:29pm 22.6 23.4 21.7 95 0.6 W 20 26 11 14 1004.9 - 1.4
06/09:04pm 22.8 22.7 21.4 92 0.9 W 24 33 13 18 1004.8 - 0.6
06/09:00pm 23.0 22.8 21.3 90 1.1 W 24 33 13 18 1004.6 1004.2 0.0
06/08:30pm 22.9 23.2 21.5 92 0.9 WSW 22 33 12 18 1004.4 - 0.0
06/08:03pm 22.9 22.8 21.5 92 0.9 WSW 24 35 13 19 1004.0 - 0.0
06/08:00pm 23.2 22.6 21.2 88 1.3 W 26 35 14 19 1003.9 - 0.0
06/07:30pm 22.9 23.0 21.1 89 1.2 W 22 35 12 19 1003.5 - 0.0
06/07:21pm 22.9 23.0 21.2 90 1.1 W 22 32 12 17 1003.4 - 0.0
06/07:00pm 23.3 23.1 21.3 88 1.3 W 24 35 13 19 1003.2 - 0.0
06/06:30pm 23.5 23.4 21.4 88 1.4 W 24 35 13 19 1002.7 - 0.0
06/06:06pm 23.8 23.6 21.2 85 1.7 W 24 39 13 21 1002.5 - 0.0
06/06:00pm 23.6 22.6 21.2 86 1.6 WSW 28 39 15 21 1002.4 1001.9 0.0
06/05:30pm 24.8 24.1 21.0 79 2.5 W 26 35 14 19 1002.1 - 0.0
06/05:00pm 24.6 23.5 21.1 81 2.3 W 28 37 15 20 1001.8 - 0.0
06/04:30pm 24.7 22.9 21.1 80 2.4 W 32 41 17 22 1001.8 - 0.0
06/04:00pm 24.9 22.8 21.0 79 2.6 W 33 44 18 24 1001.9 - 0.0
06/03:30pm 24.6 22.9 21.4 82 2.1 W 32 41 17 22 1002.0 - 0.0
06/03:00pm 25.0 23.3 21.4 80 2.4 W 32 46 17 25 1002.0 1001.5 0.0
06/02:30pm 25.8 25.1 21.8 78 2.7 W 28 41 15 22 1002.2 - 0.0
06/02:00pm 25.6 24.6 21.9 80 2.5 W 30 39 16 21 1002.4 - 0.0
06/01:30pm 25.5 24.8 21.8 80 2.5 W 28 39 15 21 1002.5 - 0.0
06/01:00pm 25.6 24.3 21.4 77 2.8 W 30 41 16 22 1002.7 - 0.0
06/12:30pm 25.6 24.6 22.0 80 2.4 W 30 43 16 23 1002.9 - 0.0
06/12:00pm 25.4 25.6 22.1 82 2.2 WNW 24 41 13 22 1003.0 1002.6 0.0
06/11:30am 25.6 25.2 21.6 78 2.7 W 26 35 14 19 1003.3 - 0.0
06/11:00am 25.8 25.4 21.6 77 2.8 W 26 35 14 19 1003.4 - 0.0
06/10:30am 25.4 24.4 21.2 77 2.8 W 28 41 15 22 1003.5 - 0.0
06/10:00am 24.8 23.8 21.3 81 2.3 WNW 28 43 15 23 1003.6 - 0.0
06/09:30am 24.8 23.8 21.2 80 2.4 WNW 28 41 15 22 1003.5 - 0.0
06/09:00am 25.0 24.5 20.8 77 2.8 WNW 24 37 13 20 1003.6 1003.2 0.0
06/08:30am 24.7 22.9 20.4 77 2.8 W 30 41 16 22 1003.6 - 0.0
06/08:00am 24.3 22.8 20.2 78 2.7 W 28 37 15 20 1003.6 - 0.0
06/07:30am 24.4 23.9 19.9 76 2.9 WNW 22 33 12 18 1003.5 - 0.0
06/07:00am 24.0 23.1 19.8 77 2.7 WNW 24 37 13 20 1003.3 - 0.0
06/06:30am 23.6 22.8 20.9 85 1.8 W 26 37 14 20 1003.0 - 0.0
06/06:00am 23.4 21.9 20.2 82 2.1 W 28 37 15 20 1002.8 1002.4 0.0
06/05:30am 23.3 22.2 21.0 87 1.5 WNW 28 39 15 21 1002.6 - 0.0
06/05:20am 23.2 22.9 21.1 88 1.4 WNW 24 33 13 18 1002.5 - 0.0
06/05:02am 23.2 22.9 21.1 88 1.4 WNW 24 37 13 20 1002.5 - 0.0
06/05:00am 23.2 22.8 20.9 87 1.5 WNW 24 37 13 20 1002.4 - 0.0
06/04:30am 23.3 22.2 21.0 87 1.5 WNW 28 37 15 20 1002.4 - 0.0
06/04:00am 23.2 22.5 21.1 88 1.4 WNW 26 37 14 20 1002.2 - 0.0
06/03:33am 23.1 23.6 21.1 88 1.3 WNW 20 33 11 18 1002.4 - 0.0
06/03:30am 23.1 23.2 21.1 88 1.3 WNW 22 33 12 18 1002.4 - 0.0
06/03:00am 23.1 22.2 20.7 86 1.6 WNW 26 37 14 20 1002.6 1002.1 0.0
06/02:55am 23.1 22.6 20.8 87 1.5 WNW 24 37 13 20 1002.6 - 0.0
06/02:30am 23.0 22.1 20.6 86 1.6 WNW 26 35 14 19 1002.8 - 0.0
06/02:00am 23.0 21.6 20.4 85 1.7 WNW 28 41 15 22 1002.9 - 0.0
06/01:30am 23.0 22.9 20.7 87 1.5 WNW 22 32 12 17 1003.2 - 0.0
06/01:26am 23.0 22.4 20.6 86 1.6 WNW 24 33 13 18 1003.2 - 0.0
06/01:02am 23.2 23.2 20.9 87 1.5 WNW 22 32 12 17 1003.6 - 0.0
06/01:00am 23.1 23.1 21.0 88 1.4 WNW 22 32 12 17 1003.6 - 0.0
06/12:30am 23.2 22.2 20.4 84 1.8 WNW 26 33 14 18 1003.8 - 0.0
06/12:00am 23.1 22.4 20.3 84 1.8 WNW 24 35 13 19 1004.1 1003.7 0.0
 
Date/Time
EDT
Temp
°C
App
Temp
°C
Dew
Point
Rel
Hum
%
Delta-T
°C
Wind Press
QNH
hPa
Press
MSL
hPa
Rain
since 9 am
mm
Dir
 
Spd
km/h
Gust
km/h
Spd
kts
Gust
kts
05/11:30pm 23.2 23.2 20.9 87 1.5 WNW 22 33 12 18 1004.4 - 0.0
05/11:00pm 23.2 22.9 20.4 84 1.8 WNW 22 32 12 17 1004.8 - 0.0
05/10:30pm 23.2 23.7 21.2 88 1.3 WNW 20 32 11 17 1004.8 - 0.0
05/10:00pm 23.1 23.5 21.0 88 1.4 WNW 20 32 11 17 1004.8 - 0.0
05/09:30pm 23.2 23.3 20.3 84 1.9 WNW 20 33 11 18 1004.8 - 0.0
05/09:00pm 23.4 24.2 21.4 88 1.3 WNW 19 32 10 17 1004.9 1004.5 0.0
05/08:30pm 23.4 22.9 20.7 85 1.8 WNW 24 37 13 20 1004.7 - 0.0
05/08:00pm 23.3 23.7 20.6 85 1.8 WNW 19 30 10 16 1004.4 - 0.0
05/07:30pm 23.2 23.5 20.4 84 1.8 WNW 19 28 10 15 1004.0 - 0.0
05/07:00pm 23.4 24.4 21.1 87 1.5 WNW 17 30 9 16 1003.8 - 0.0
05/06:30pm 23.6 24.1 20.9 85 1.8 WNW 19 28 10 15 1003.7 - 0.0
05/06:00pm 23.7 23.4 20.3 81 2.2 WNW 22 30 12 16 1003.4 1003.0 0.0
05/05:30pm 23.9 24.1 20.5 81 2.2 WNW 20 30 11 16 1003.3 - 0.0
05/05:00pm 24.8 25.2 21.0 79 2.5 WNW 20 30 11 16 1003.3 - 0.0
05/04:30pm 24.3 24.2 20.7 80 2.4 WNW 22 32 12 17 1003.2 - 0.0
05/04:00pm 24.9 24.2 20.3 75 3.0 WNW 24 32 13 17 1003.2 - 0.0
05/03:30pm 26.0 25.8 20.5 71 3.6 W 22 35 12 19 1003.2 - 0.0
05/03:00pm 25.5 25.3 20.5 74 3.3 WNW 22 33 12 18 1003.3 1002.9 0.0
05/02:30pm 24.8 24.2 20.4 76 2.9 WNW 24 33 13 18 1003.5 - 0.0
05/01:30pm 25.1 23.9 20.1 74 3.3 W 26 35 14 19 1003.5 - 0.0
05/01:00pm 25.5 23.9 20.0 71 3.6 W 28 37 15 20 1003.5 - 0.0
05/12:30pm 26.2 24.9 19.9 68 4.1 W 26 33 14 18 1003.5 - 0.0
05/12:00pm 25.3 24.1 20.1 73 3.4 W 26 37 14 20 1003.4 1003.0 0.0
05/11:30am 24.6 23.4 20.0 75 3.0 W 26 35 14 19 1003.4 - 0.0
05/11:00am 24.1 23.8 20.4 80 2.4 W 22 30 12 16 1003.7 - 0.0
05/10:30am 24.1 23.5 20.4 80 2.4 WNW 24 33 13 18 1003.7 - 0.0
05/10:00am 25.0 25.1 21.2 79 2.5 WNW 22 32 12 17 1004.1 - 0.0
05/09:30am 24.8 24.7 20.7 78 2.7 WNW 22 30 12 16 1004.3 - 0.0
05/09:00am 24.9 25.4 21.1 79 2.5 WNW 20 28 11 15 1004.1 1003.7 19.0
05/08:30am 24.6 25.2 21.0 80 2.4 W 19 26 10 14 1004.1 - 19.0
05/08:00am 23.8 24.7 20.8 83 2.0 WNW 17 26 9 14 1003.9 - 19.0
05/07:30am 23.7 24.8 20.5 82 2.1 WNW 15 22 8 12 1003.9 - 19.0
05/07:00am 23.7 24.1 19.8 79 2.5 W 17 28 9 15 1003.9 - 19.0
05/06:30am 23.4 24.4 21.0 86 1.6 W 17 26 9 14 1003.6 - 19.0
05/06:17am 23.3 24.1 20.7 85 1.7 W 17 24 9 13 1003.6 - 19.0
05/06:06am 23.2 23.3 20.4 84 1.8 W 20 30 11 16 1003.5 - 19.0
05/06:00am 23.2 23.1 20.0 82 2.1 W 20 28 11 15 1003.5 1003.1 19.0
05/05:51am 23.0 23.0 20.2 84 1.8 W 20 30 11 16 1003.3 - 19.0
05/05:40am 23.0 23.6 20.2 84 1.8 W 17 26 9 14 1003.2 - 19.0
05/05:30am 22.8 22.3 20.0 84 1.8 W 22 28 12 15 1003.1 - 19.0
05/05:00am 22.9 22.2 19.5 81 2.2 W 22 32 12 17 1002.9 - 19.0
05/04:30am 22.8 22.7 20.0 84 1.8 W 20 30 11 16 1002.8 - 19.0
05/04:00am 22.8 21.4 19.7 83 2.0 W 26 37 14 20 1002.7 - 19.0
05/03:30am 22.8 22.6 19.7 83 2.0 W 20 30 11 16 1002.5 - 19.0
05/03:00am 22.7 22.1 19.8 84 1.9 W 22 37 12 20 1002.4 1001.9 19.0
05/02:59am 22.7 22.1 19.8 84 1.9 W 22 37 12 20 1002.4 - 19.0
05/02:30am 22.9 22.6 20.3 85 1.7 W 22 37 12 20 1002.5 - 19.0
05/02:28am 23.0 22.2 20.1 84 1.9 W 24 37 13 20 1002.5 - 19.0
05/02:26am 22.9 22.1 20.0 84 1.9 W 24 37 13 20 1002.5 - 19.0
05/02:00am 22.8 22.3 20.0 84 1.8 WNW 22 32 12 17 1002.7 - 19.0
05/01:51am 22.9 22.9 20.1 84 1.8 WNW 20 32 11 17 1002.7 - 19.0
05/01:30am 22.9 23.0 20.3 85 1.7 W 20 33 11 18 1003.0 - 19.0
05/01:00am 22.8 22.9 20.3 86 1.6 WNW 20 30 11 16 1003.3 - 19.0
05/12:58am 22.8 22.5 20.3 86 1.6 WNW 22 33 12 18 1003.4 - 19.0
05/12:30am 23.1 23.0 20.8 87 1.5 WNW 22 32 12 17 1003.6 - 19.0
05/12:15am 23.0 23.5 20.9 88 1.4 WNW 19 26 10 14 1003.7 - 19.0
05/12:00am 22.7 23.7 21.0 90 1.1 WNW 17 24 9 13 1003.8 1003.4 19.0
 
Date/Time
EDT
Temp
°C
App
Temp
°C
Dew
Point
Rel
Hum
%
Delta-T
°C
Wind Press
QNH
hPa
Press
MSL
hPa
Rain
since 9 am
mm
Dir
 
Spd
km/h
Gust
km/h
Spd
kts
Gust
kts
04/11:30pm 23.0 23.4 20.7 87 1.5 WNW 19 26 10 14 1003.9 - 19.0
04/11:00pm 22.9 23.4 20.9 88 1.3 WNW 19 28 10 15 1003.9 - 19.0
04/10:30pm 23.0 23.6 21.0 88 1.3 WNW 19 28 10 15 1004.1 - 19.0
04/10:00pm 23.0 23.9 20.9 88 1.4 WNW 17 26 9 14 1004.2 - 19.0
04/09:30pm 22.9 23.8 20.8 88 1.4 WNW 17 24 9 13 1004.3 - 19.0
04/09:07pm 23.1 23.9 20.7 86 1.6 WNW 17 26 9 14 1004.3 - 19.0
04/09:00pm 23.0 24.4 21.0 88 1.3 WNW 15 24 8 13 1004.3 1003.9 19.0
04/08:55pm 23.1 24.5 21.1 88 1.3 WNW 15 22 8 12 1004.3 - 19.0
04/08:30pm 23.0 24.2 20.6 86 1.6 WNW 15 20 8 11 1004.1 - 19.0
04/08:00pm 23.1 24.4 20.8 87 1.5 W 15 22 8 12 1003.8 - 19.0
04/07:30pm 23.3 23.7 20.7 85 1.7 W 19 26 10 14 1003.6 - 19.0
04/07:00pm 23.4 23.1 20.3 83 2.0 W 22 32 12 17 1003.3 - 19.0
04/06:30pm 23.6 23.3 20.4 82 2.1 W 22 30 12 16 1002.9 - 19.0
04/06:00pm 24.0 23.3 20.3 80 2.4 W 24 33 13 18 1002.5 1002.0 19.0
04/05:30pm 24.1 23.1 20.4 80 2.4 W 26 33 14 18 1002.0 - 19.0
04/05:00pm 24.3 23.2 20.2 78 2.7 W 26 35 14 19 1002.0 - 19.0
04/04:30pm 23.9 23.9 21.0 84 1.9 W 22 30 12 16 1002.0 - 19.0
04/04:17pm 24.0 23.5 20.8 82 2.1 W 24 35 13 19 1002.1 - 19.0

Other Formats:

Comma delimited format used in spreadsheet applications
http://www.bom.gov.au/fwo/IDN60801/IDN60801.94996.axf

JavaScript Object Notation format (JSON) in row-major order
http://www.bom.gov.au/fwo/IDN60801/IDN60801.94996.json